Terminal Aerodrome Forecast
Issued by NWS

Home | Current Version | Previous Version | Text Only | Print | Product List | Glossary Off
Versions: 1 2 3 4 5 6 7 8 9 10 11 12 13 14 15 16 17 18 19 20 21

000
FTUS43 KGRB 252300
TAFCWA
TAF
KCWA 252320Z 2600/2624 16004KT P6SM BKN100 OVC150
     FM260400 VRB03KT 6SM BR SCT017 OVC150
     FM260800 08003KT 4SM BR SCT008 OVC012
     FM261100 07004KT 3SM BR OVC008
      AMD LTD TO CLD VIS AND WIND 2603/2611=

USA.gov is the U.S. government's official web portal to all federal, state and local government web resources and services.